Time;durP1;ratioP1;P1;durP2;ratioP2;P2;SDS_P1;SDS_P2;PMS_P1;PMS_P2;Temp;Humidity;BMP_temperature;BMP_pressure;BME280_temperature;BME280_humidity;BME280_pressure;Samples;Min_cycle;Max_cycle;Signal;HPM_P1;HPM_P2
2022/07/30 00:00:51;;;;;;;;;;;18.90;88.80;;;;;;4929645;29;20306;-89
2022/07/30 00:03:18;;;;;;;;;;;18.90;89.50;;;;;;4929360;29;19927;-87
2022/07/30 00:05:47;;;;;;;;;;;18.90;89.70;;;;;;4947822;29;19915;-88
2022/07/30 00:08:14;;;;;;;;;;;18.80;89.40;;;;;;4938559;28;19941;-88
2022/07/30 00:10:42;;;;;;;;;;;18.70;89.30;;;;;;4917807;29;19927;-88
2022/07/30 00:13:12;;;;;;;;;;;18.60;90.30;;;;;;4933910;29;20405;-88
2022/07/30 00:15:40;;;;;;;;;;;18.50;89.40;;;;;;4924213;29;20041;-88
2022/07/30 00:18:08;;;;;;;;;;;18.40;90.20;;;;;;4919017;29;19931;-88
2022/07/30 00:20:39;;;;;;;;;;;18.40;90.30;;;;;;4934589;29;19931;-88
2022/07/30 00:23:10;;;;;;;;;;;18.30;90.50;;;;;;4935395;29;20004;-88
2022/07/30 00:25:38;;;;;;;;;;;18.30;90.50;;;;;;4931241;29;19942;-88
2022/07/30 00:28:05;;;;;;;;;;;18.90;90.50;;;;;;4932413;29;19937;-88
2022/07/30 00:30:33;;;;;;;;;;;18.30;90.50;;;;;;4943939;29;19935;-88
2022/07/30 00:33:01;;;;;;;;;;;18.20;90.50;;;;;;4943453;29;19927;-88
2022/07/30 00:35:28;;;;;;;;;;;18.20;90.40;;;;;;4928313;29;19937;-89
2022/07/30 00:37:56;;;;;;;;;;;18.20;90.60;;;;;;4939048;29;19930;-88
2022/07/30 00:40:24;;;;;;;;;;;18.20;90.80;;;;;;4928826;29;19930;-88
2022/07/30 00:42:51;;;;;;;;;;;18.10;90.80;;;;;;4919699;29;19927;-89
2022/07/30 00:45:19;;;;;;;;;;;18.20;90.80;;;;;;4934542;29;19941;-89
2022/07/30 00:47:48;;;;;;;;;;;18.20;90.90;;;;;;4946080;28;19938;-88
2022/07/30 00:50:16;;;;;;;;;;;18.30;90.70;;;;;;4936136;29;19943;-88
2022/07/30 00:52:45;;;;;;;;;;;18.30;90.70;;;;;;4917868;29;19927;-89
2022/07/30 00:55:14;;;;;;;;;;;18.30;90.60;;;;;;4935642;29;19938;-89
2022/07/30 00:57:41;;;;;;;;;;;18.10;90.80;;;;;;4905077;29;19930;-89
2022/07/30 01:00:14;;;;;;;;;;;18.30;90.90;;;;;;4935970;29;19927;-88
2022/07/30 01:02:42;;;;;;;;;;;18.20;90.80;;;;;;4919474;29;19931;-89
2022/07/30 01:05:10;;;;;;;;;;;18.20;90.80;;;;;;4935717;29;19931;-90
2022/07/30 01:07:40;;;;;;;;;;;18.10;90.90;;;;;;4920209;29;19927;-89
2022/07/30 01:10:09;;;;;;;;;;;18.10;91.00;;;;;;4934387;29;19934;-89
2022/07/30 01:12:37;;;;;;;;;;;18.10;91.00;;;;;;4938966;29;19937;-88
2022/07/30 01:15:06;;;;;;;;;;;18.10;90.90;;;;;;4936589;28;20294;-89
2022/07/30 01:17:34;;;;;;;;;;;18.10;90.80;;;;;;4919400;29;19930;-89
2022/07/30 01:20:07;;;;;;;;;;;18.10;90.70;;;;;;4937620;29;20121;-89
2022/07/30 01:22:53;;;;;;;;;;;18.20;90.70;;;;;;4927112;29;19926;-88
2022/07/30 01:25:30;;;;;;;;;;;18.20;90.40;;;;;;4939899;29;20007;-88
2022/07/30 01:28:01;;;;;;;;;;;18.20;90.10;;;;;;4963886;29;20517;-89
2022/07/30 01:30:31;;;;;;;;;;;18.20;90.00;;;;;;4924584;29;19927;-89
2022/07/30 01:33:02;;;;;;;;;;;18.20;88.90;;;;;;4921169;29;20310;-87
2022/07/30 01:35:31;;;;;;;;;;;18.20;88.60;;;;;;4943755;29;19927;-89
2022/07/30 01:38:00;;;;;;;;;;;18.10;87.50;;;;;;4953478;29;19937;-89
2022/07/30 01:40:28;;;;;;;;;;;18.20;87.10;;;;;;4930789;29;19927;-88
2022/07/30 01:42:58;;;;;;;;;;;18.20;87.50;;;;;;4921722;29;19927;-89
2022/07/30 01:45:27;;;;;;;;;;;18.30;87.30;;;;;;4933455;28;19938;-90
2022/07/30 01:47:57;;;;;;;;;;;18.30;86.90;;;;;;4922005;29;19927;-89
2022/07/30 01:50:26;;;;;;;;;;;18.30;86.90;;;;;;4920748;29;19927;-90
2022/07/30 01:52:55;;;;;;;;;;;18.40;86.60;;;;;;4919107;29;20201;-89
2022/07/30 01:55:34;;;;;;;;;;;18.40;86.80;;;;;;4913648;29;19927;-89
2022/07/30 01:58:06;;;;;;;;;;;18.40;86.40;;;;;;4916819;29;19927;-90
2022/07/30 02:00:39;;;;;;;;;;;18.40;86.60;;;;;;4917426;29;19927;-90
2022/07/30 02:03:07;;;;;;;;;;;18.50;86.40;;;;;;4949079;29;20299;-89
2022/07/30 02:05:35;;;;;;;;;;;18.50;86.50;;;;;;4932847;29;19934;-90
2022/07/30 02:08:11;;;;;;;;;;;18.50;86.40;;;;;;4933275;29;19927;-90
2022/07/30 02:10:45;;;;;;;;;;;18.50;86.50;;;;;;4915832;29;19927;-89
2022/07/30 02:13:21;;;;;;;;;;;18.50;86.80;;;;;;4938964;29;19927;-90
2022/07/30 02:15:49;;;;;;;;;;;18.40;86.70;;;;;;4917337;29;20448;-89
2022/07/30 02:18:20;;;;;;;;;;;18.20;86.70;;;;;;4933150;29;20437;-89
2022/07/30 02:20:59;;;;;;;;;;;18.40;87.40;;;;;;4917575;29;19927;-89
2022/07/30 02:23:29;;;;;;;;;;;18.40;87.00;;;;;;4932152;29;19938;-89
2022/07/30 02:25:59;;;;;;;;;;;18.40;87.40;;;;;;4931879;29;19931;-89
2022/07/30 02:28:29;;;;;;;;;;;18.40;87.80;;;;;;4915371;29;19930;-89
2022/07/30 02:30:59;;;;;;;;;;;18.70;88.00;;;;;;4915877;29;20501;-89
2022/07/30 02:33:29;;;;;;;;;;;18.30;88.00;;;;;;4917261;29;20447;-90
2022/07/30 02:36:01;;;;;;;;;;;18.30;87.90;;;;;;4916776;29;20298;-89
2022/07/30 02:38:29;;;;;;;;;;;18.20;88.60;;;;;;4932762;29;19927;-89
2022/07/30 02:40:59;;;;;;;;;;;18.20;88.50;;;;;;4915979;29;20371;-89
2022/07/30 02:43:28;;;;;;;;;;;18.20;88.60;;;;;;4915110;29;19927;-89
2022/07/30 02:46:04;;;;;;;;;;;18.20;88.80;;;;;;4916827;29;20390;-88
2022/07/30 02:48:53;;;;;;;;;;;19.60;89.80;;;;;;4931154;29;19934;-89
2022/07/30 02:51:21;;;;;;;;;;;18.10;89.20;;;;;;4921832;29;19934;-88
2022/07/30 02:53:50;;;;;;;;;;;18.10;89.50;;;;;;4918253;29;19931;-88
2022/07/30 02:56:21;;;;;;;;;;;18.10;89.60;;;;;;4936649;28;19935;-89
2022/07/30 02:58:50;;;;;;;;;;;18.10;89.70;;;;;;4931714;29;19958;-89
2022/07/30 03:01:20;;;;;;;;;;;18.00;89.80;;;;;;4940679;29;19927;-89
2022/07/30 03:03:48;;;;;;;;;;;18.00;89.60;;;;;;4919612;29;19937;-89
2022/07/30 03:06:16;;;;;;;;;;;18.00;89.70;;;;;;4914227;29;19934;-89
2022/07/30 03:08:44;;;;;;;;;;;17.90;90.00;;;;;;4920273;29;19939;-88
2022/07/30 03:11:12;;;;;;;;;;;17.90;90.00;;;;;;4920750;29;19942;-90
2022/07/30 03:13:40;;;;;;;;;;;18.00;90.10;;;;;;4915244;29;20014;-90
2022/07/30 03:16:09;;;;;;;;;;;17.90;90.10;;;;;;4915278;29;19933;-89
2022/07/30 03:18:38;;;;;;;;;;;18.00;90.20;;;;;;4914757;29;19931;-89
2022/07/30 03:21:06;;;;;;;;;;;17.80;90.20;;;;;;4915695;29;20320;-89
2022/07/30 03:23:36;;;;;;;;;;;17.80;90.30;;;;;;4930729;29;19957;-90
2022/07/30 03:26:05;;;;;;;;;;;17.80;90.20;;;;;;4919544;29;19927;-90
2022/07/30 03:28:38;;;;;;;;;;;17.70;90.20;;;;;;4900330;29;19927;-88
2022/07/30 03:31:07;;;;;;;;;;;17.80;90.50;;;;;;4916749;29;19933;-90
2022/07/30 03:33:35;;;;;;;;;;;17.70;90.40;;;;;;4915162;29;20374;-88
2022/07/30 03:36:06;;;;;;;;;;;17.70;90.60;;;;;;4915772;29;19939;-88
2022/07/30 03:38:35;;;;;;;;;;;17.70;90.50;;;;;;4911933;29;20375;-88
2022/07/30 03:41:04;;;;;;;;;;;17.70;90.60;;;;;;4914544;29;19931;-88
2022/07/30 03:43:33;;;;;;;;;;;17.60;90.60;;;;;;4911730;29;20453;-88
2022/07/30 03:46:02;;;;;;;;;;;17.60;90.60;;;;;;4911362;29;19927;-87
2022/07/30 03:48:35;;;;;;;;;;;17.60;90.70;;;;;;4924736;29;19934;-88
2022/07/30 03:51:05;;;;;;;;;;;17.50;90.80;;;;;;4912962;29;19934;-88
2022/07/30 03:53:33;;;;;;;;;;;17.50;90.70;;;;;;4913958;29;19927;-88
2022/07/30 03:56:24;;;;;;;;;;;17.60;90.80;;;;;;4930124;29;19927;-89
2022/07/30 03:59:15;;;;;;;;;;;17.40;90.90;;;;;;4932019;29;19930;-90
2022/07/30 04:01:43;;;;;;;;;;;17.40;90.90;;;;;;4930476;29;19934;-89
2022/07/30 04:04:31;;;;;;;;;;;17.40;90.90;;;;;;4914578;29;19938;-90
2022/07/30 04:06:58;;;;;;;;;;;17.40;91.00;;;;;;4898479;29;19946;-89
2022/07/30 04:09:28;;;;;;;;;;;17.30;91.20;;;;;;4909739;29;19954;-88
2022/07/30 04:12:04;;;;;;;;;;;17.30;91.10;;;;;;4906872;29;19938;-88
2022/07/30 04:14:40;;;;;;;;;;;17.40;91.10;;;;;;4923844;29;19937;-88
2022/07/30 04:17:31;;;;;;;;;;;17.20;91.00;;;;;;4902648;29;19938;-89
2022/07/30 04:20:26;;;;;;;;;;;17.20;91.20;;;;;;4915139;29;20456;-89
2022/07/30 04:22:55;;;;;;;;;;;17.20;91.10;;;;;;4928041;29;19937;-89
2022/07/30 04:25:23;;;;;;;;;;;17.20;91.30;;;;;;4934305;28;19948;-88
2022/07/30 04:27:51;;;;;;;;;;;17.20;91.30;;;;;;4930920;29;19927;-88
2022/07/30 04:30:33;;;;;;;;;;;17.10;91.30;;;;;;4930441;29;19923;-89
2022/07/30 04:33:02;;;;;;;;;;;17.10;91.30;;;;;;4939773;28;19915;-88
2022/07/30 04:35:56;;;;;;;;;;;17.10;91.40;;;;;;4928632;29;20381;-88
2022/07/30 04:38:30;;;;;;;;;;;17.00;91.60;;;;;;4917703;29;19934;-89
2022/07/30 04:41:02;;;;;;;;;;;17.00;91.50;;;;;;4912534;29;19927;-88
2022/07/30 04:43:53;;;;;;;;;;;17.00;91.60;;;;;;4940965;29;19933;-88
2022/07/30 04:46:21;;;;;;;;;;;17.00;91.60;;;;;;4916463;29;19938;-88
2022/07/30 04:48:51;;;;;;;;;;;16.90;91.70;;;;;;4914993;29;19927;-89
2022/07/30 04:51:32;;;;;;;;;;;16.90;91.80;;;;;;4932234;29;19934;-88
2022/07/30 04:54:02;;;;;;;;;;;16.90;91.80;;;;;;4951293;29;19930;-88
2022/07/30 04:56:32;;;;;;;;;;;16.90;91.90;;;;;;4934371;29;19935;-88
2022/07/30 04:59:01;;;;;;;;;;;16.90;92.10;;;;;;4953846;29;19930;-89
2022/07/30 05:01:40;;;;;;;;;;;16.90;92.00;;;;;;4935841;28;19915;-89
2022/07/30 05:04:09;;;;;;;;;;;17.00;92.10;;;;;;4938413;29;20410;-88
2022/07/30 05:06:37;;;;;;;;;;;17.00;92.10;;;;;;4939869;29;19930;-89
2022/07/30 05:09:05;;;;;;;;;;;17.00;92.00;;;;;;4923540;29;19927;-88
2022/07/30 05:11:33;;;;;;;;;;;17.10;92.10;;;;;;4904303;29;19927;-89
2022/07/30 05:14:01;;;;;;;;;;;17.10;92.10;;;;;;4908842;29;19934;-88
2022/07/30 05:16:29;;;;;;;;;;;17.10;92.00;;;;;;4912170;29;20200;-88
2022/07/30 05:18:59;;;;;;;;;;;16.80;92.00;;;;;;4933966;29;20617;-89
2022/07/30 05:21:26;;;;;;;;;;;17.10;92.10;;;;;;4931911;29;19933;-89
2022/07/30 05:23:55;;;;;;;;;;;17.30;92.20;;;;;;4899083;29;19931;-88
2022/07/30 05:26:29;;;;;;;;;;;17.10;92.10;;;;;;4928201;29;20259;-89
2022/07/30 05:28:59;;;;;;;;;;;17.10;92.30;;;;;;4913985;29;20482;-89
2022/07/30 05:31:43;;;;;;;;;;;17.20;92.20;;;;;;4929242;29;20382;-90
2022/07/30 05:34:11;;;;;;;;;;;17.30;92.30;;;;;;4915580;29;19927;-89
2022/07/30 05:36:43;;;;;;;;;;;17.20;92.40;;;;;;4917184;29;19933;-89
2022/07/30 05:39:15;;;;;;;;;;;17.20;92.40;;;;;;4919202;29;19946;-89
2022/07/30 05:41:53;;;;;;;;;;;17.20;92.60;;;;;;4933972;29;19927;-89
2022/07/30 05:44:27;;;;;;;;;;;17.30;92.50;;;;;;4937420;29;19927;-89
2022/07/30 05:46:55;;;;;;;;;;;17.30;92.90;;;;;;4911259;29;19927;-88
2022/07/30 05:49:23;;;;;;;;;;;17.40;92.70;;;;;;4933653;29;19937;-89
2022/07/30 05:51:53;;;;;;;;;;;17.40;92.60;;;;;;4917695;29;19926;-88
2022/07/30 05:54:23;;;;;;;;;;;17.50;92.80;;;;;;4903123;29;19927;-89
2022/07/30 05:57:24;;;;;;;;;;;17.60;92.80;;;;;;4918707;29;19926;-91
2022/07/30 05:59:52;;;;;;;;;;;17.70;92.70;;;;;;4935428;28;19985;-89
2022/07/30 06:02:24;;;;;;;;;;;17.80;93.00;;;;;;4927038;29;20502;-89
2022/07/30 06:05:23;;;;;;;;;;;17.90;92.90;;;;;;4922790;29;19934;-89
2022/07/30 06:07:51;;;;;;;;;;;18.10;93.00;;;;;;4937659;29;19941;-88
2022/07/30 06:10:28;;;;;;;;;;;18.20;93.10;;;;;;4952205;29;19937;-87
2022/07/30 06:12:56;;;;;;;;;;;18.30;93.40;;;;;;4915099;29;19927;-89
2022/07/30 06:15:25;;;;;;;;;;;18.40;94.10;;;;;;4930658;29;20027;-88
2022/07/30 06:17:54;;;;;;;;;;;18.40;93.60;;;;;;4919701;29;19931;-89
2022/07/30 06:20:41;;;;;;;;;;;18.50;93.50;;;;;;4913844;29;19930;-87
2022/07/30 06:23:29;;;;;;;;;;;18.60;93.70;;;;;;4910974;29;19931;-85
2022/07/30 06:26:06;;;;;;;;;;;18.70;93.80;;;;;;4944903;29;19938;-86
2022/07/30 06:28:34;;;;;;;;;;;18.80;93.50;;;;;;4947369;29;20373;-86
2022/07/30 06:31:13;;;;;;;;;;;18.90;93.30;;;;;;4954996;29;20202;-87
2022/07/30 06:33:42;;;;;;;;;;;19.00;93.30;;;;;;4924080;29;19946;-87
2022/07/30 06:36:10;;;;;;;;;;;19.10;92.80;;;;;;4926191;29;19927;-87
2022/07/30 06:39:09;;;;;;;;;;;19.10;93.10;;;;;;4917047;29;19934;-87
2022/07/30 06:41:58;;;;;;;;;;;19.30;92.70;;;;;;4923210;29;19927;-88
2022/07/30 06:44:30;;;;;;;;;;;19.30;92.40;;;;;;4914021;29;19942;-88
2022/07/30 06:47:25;;;;;;;;;;;19.50;92.40;;;;;;4918890;29;20328;-88
2022/07/30 06:49:52;;;;;;;;;;;19.60;92.50;;;;;;4914717;29;20425;-88
2022/07/30 06:52:21;;;;;;;;;;;19.70;92.30;;;;;;4929913;29;19931;-86
2022/07/30 06:54:51;;;;;;;;;;;19.80;92.30;;;;;;4914356;29;20584;-89
2022/07/30 06:57:41;;;;;;;;;;;19.90;92.10;;;;;;4912490;29;19934;-87
2022/07/30 07:00:29;;;;;;;;;;;20.00;92.10;;;;;;4916851;29;19934;-87
2022/07/30 07:03:01;;;;;;;;;;;20.10;91.60;;;;;;4914038;29;19927;-89
2022/07/30 07:05:35;;;;;;;;;;;20.20;91.50;;;;;;4946150;29;20310;-88
2022/07/30 07:08:03;;;;;;;;;;;20.30;91.20;;;;;;4937329;29;19926;-87
2022/07/30 07:10:36;;;;;;;;;;;20.30;90.30;;;;;;4932590;29;19930;-89
2022/07/30 07:13:23;;;;;;;;;;;20.40;89.50;;;;;;4939489;28;19927;-87
2022/07/30 07:15:50;;;;;;;;;;;20.50;89.90;;;;;;4940291;29;19927;-88
2022/07/30 07:18:22;;;;;;;;;;;20.60;88.50;;;;;;4932271;29;19927;-89
2022/07/30 07:20:54;;;;;;;;;;;20.70;87.60;;;;;;4932320;29;19930;-89
2022/07/30 07:23:29;;;;;;;;;;;20.80;87.20;;;;;;4933438;29;19927;-91
2022/07/30 07:26:29;;;;;;;;;;;20.90;87.00;;;;;;4922572;29;19927;-88
2022/07/30 07:28:57;;;;;;;;;;;21.00;86.60;;;;;;4934976;29;19937;-88
2022/07/30 07:31:31;;;;;;;;;;;21.20;86.20;;;;;;4947286;28;19927;-88
2022/07/30 07:34:19;;;;;;;;;;;21.10;86.10;;;;;;4946236;29;19931;-87
2022/07/30 07:36:46;;;;;;;;;;;22.50;86.20;;;;;;4907251;29;19927;-87
2022/07/30 07:39:14;;;;;;;;;;;21.10;85.20;;;;;;4930407;29;19931;-91
2022/07/30 07:41:43;;;;;;;;;;;21.00;85.20;;;;;;4926139;29;20003;-88
2022/07/30 07:44:20;;;;;;;;;;;21.00;84.30;;;;;;4917537;29;19935;-91
2022/07/30 07:46:48;;;;;;;;;;;21.10;85.20;;;;;;4921018;29;19926;-87
2022/07/30 07:49:16;;;;;;;;;;;21.20;85.30;;;;;;4927624;29;19934;-89
2022/07/30 07:51:48;;;;;;;;;;;21.20;85.30;;;;;;4937604;29;19931;-91
2022/07/30 07:54:20;;;;;;;;;;;21.30;84.90;;;;;;4932154;29;19933;-88
2022/07/30 07:57:00;;;;;;;;;;;21.30;84.90;;;;;;4915954;29;19931;-87
2022/07/30 07:59:47;;;;;;;;;;;21.40;84.60;;;;;;4930554;29;19935;-88
2022/07/30 08:02:25;;;;;;;;;;;21.60;85.30;;;;;;4918013;29;19931;-89
2022/07/30 08:04:59;;;;;;;;;;;21.80;85.10;;;;;;4927466;29;19962;-88
2022/07/30 08:07:41;;;;;;;;;;;21.90;83.90;;;;;;4941767;29;19931;-89
2022/07/30 08:10:15;;;;;;;;;;;22.00;83.60;;;;;;4942591;29;20366;-86
2022/07/30 08:12:54;;;;;;;;;;;22.10;82.50;;;;;;4913300;29;19942;-90
2022/07/30 08:15:49;;;;;;;;;;;22.20;82.20;;;;;;4936517;29;19926;-87
2022/07/30 08:18:42;;;;;;;;;;;22.30;82.30;;;;;;4935844;29;20291;-89
2022/07/30 08:21:33;;;;;;;;;;;22.30;82.40;;;;;;4932461;29;19931;-87
2022/07/30 08:24:00;;;;;;;;;;;22.40;82.90;;;;;;4914674;29;20343;-89
2022/07/30 08:26:29;;;;;;;;;;;22.40;82.50;;;;;;4934599;29;19927;-92
2022/07/30 08:28:58;;;;;;;;;;;22.50;82.50;;;;;;4946777;28;19935;-89
2022/07/30 08:31:26;;;;;;;;;;;22.60;82.30;;;;;;4934328;29;20390;-89
2022/07/30 08:33:56;;;;;;;;;;;22.70;81.40;;;;;;4930901;29;19926;-90
2022/07/30 08:36:26;;;;;;;;;;;22.80;80.60;;;;;;4934811;29;19934;-87
2022/07/30 08:38:58;;;;;;;;;;;22.80;81.10;;;;;;4942481;29;19926;-90
2022/07/30 08:41:27;;;;;;;;;;;22.90;80.30;;;;;;4936183;29;19935;-89
2022/07/30 08:43:56;;;;;;;;;;;23.00;79.50;;;;;;4936556;29;19931;-90
2022/07/30 08:46:26;;;;;;;;;;;23.10;80.00;;;;;;4938856;29;19931;-90
2022/07/30 08:48:59;;;;;;;;;;;23.10;79.20;;;;;;4917611;29;20401;-88
2022/07/30 08:51:36;;;;;;;;;;;23.20;78.90;;;;;;4914380;29;20421;-89
2022/07/30 08:54:34;;;;;;;;;;;23.30;78.80;;;;;;4931266;29;19931;-87
2022/07/30 08:57:04;;;;;;;;;;;23.30;78.60;;;;;;4918093;29;19953;-88
2022/07/30 08:59:38;;;;;;;;;;;23.40;78.20;;;;;;4944304;29;19915;-89
2022/07/30 09:02:30;;;;;;;;;;;23.30;78.90;;;;;;4951811;29;19914;-89
2022/07/30 09:05:03;;;;;;;;;;;23.40;79.10;;;;;;4955800;29;19941;-89
2022/07/30 09:07:33;;;;;;;;;;;23.50;78.90;;;;;;4934139;29;19938;-90
2022/07/30 09:10:07;;;;;;;;;;;23.50;79.20;;;;;;4938879;29;20044;-90
2022/07/30 09:12:44;;;;;;;;;;;23.60;79.10;;;;;;4915782;29;19927;-90
2022/07/30 09:15:18;;;;;;;;;;;23.60;79.20;;;;;;4919820;29;19938;-89
2022/07/30 09:17:48;;;;;;;;;;;23.60;80.10;;;;;;4902483;29;19938;-90
2022/07/30 09:20:16;;;;;;;;;;;24.00;79.80;;;;;;4949754;29;19938;-90
2022/07/30 09:22:46;;;;;;;;;;;23.70;79.50;;;;;;4963478;29;19934;-90
2022/07/30 09:25:37;;;;;;;;;;;23.70;79.60;;;;;;4936934;29;19934;-88
2022/07/30 09:28:27;;;;;;;;;;;23.80;79.80;;;;;;4930742;29;19927;-91
2022/07/30 09:31:15;;;;;;;;;;;24.00;79.50;;;;;;4930401;29;19930;-91
2022/07/30 09:34:02;;;;;;;;;;;24.10;79.40;;;;;;4931442;29;19942;-89
2022/07/30 09:36:48;;;;;;;;;;;24.10;79.10;;;;;;4913277;29;19935;-91
2022/07/30 09:39:32;;;;;;;;;;;24.20;79.10;;;;;;4914286;29;19937;-89
2022/07/30 09:42:24;;;;;;;;;;;24.20;79.40;;;;;;4931264;29;20125;-88
2022/07/30 09:45:08;;;;;;;;;;;24.20;79.40;;;;;;4936931;29;19935;-88
2022/07/30 09:47:47;;;;;;;;;;;24.20;79.20;;;;;;4930504;29;19938;-88
2022/07/30 09:50:18;;;;;;;;;;;24.30;79.30;;;;;;4901948;29;19931;-86
2022/07/30 09:53:06;;;;;;;;;;;24.40;79.30;;;;;;4930858;29;19934;-87
2022/07/30 09:55:35;;;;;;;;;;;24.40;78.90;;;;;;4937042;29;19930;-87
2022/07/30 09:58:10;;;;;;;;;;;24.50;78.60;;;;;;4906431;29;19930;-88
2022/07/30 10:00:43;;;;;;;;;;;24.50;77.90;;;;;;4899166;29;19934;-86
2022/07/30 10:03:40;;;;;;;;;;;24.50;77.90;;;;;;4930398;29;19935;-87
2022/07/30 10:06:31;;;;;;;;;;;24.50;77.50;;;;;;4937858;29;20297;-87
2022/07/30 10:09:00;;;;;;;;;;;24.60;77.30;;;;;;4934018;29;19946;-86
2022/07/30 10:11:43;;;;;;;;;;;24.50;77.30;;;;;;4942299;29;19942;-87
2022/07/30 10:14:11;;;;;;;;;;;24.60;77.00;;;;;;4934616;29;19934;-89
2022/07/30 10:16:40;;;;;;;;;;;24.60;76.90;;;;;;4923689;29;19935;-86
2022/07/30 10:19:11;;;;;;;;;;;24.70;77.20;;;;;;4941537;29;19937;-87
2022/07/30 10:22:09;;;;;;;;;;;24.70;76.70;;;;;;4924529;29;19931;-87
2022/07/30 10:25:10;;;;;;;;;;;24.80;76.50;;;;;;4930639;29;19938;-87
2022/07/30 10:28:01;;;;;;;;;;;24.90;76.60;;;;;;4939951;29;19941;-88
2022/07/30 10:30:31;;;;;;;;;;;25.00;76.40;;;;;;4932465;29;19938;-88
2022/07/30 10:33:00;;;;;;;;;;;25.10;76.10;;;;;;4946523;29;19931;-87
2022/07/30 10:35:30;;;;;;;;;;;25.20;76.50;;;;;;4920584;29;20045;-89
2022/07/30 10:38:09;;;;;;;;;;;25.20;76.00;;;;;;4933557;29;19935;-89
2022/07/30 10:40:49;;;;;;;;;;;25.30;75.60;;;;;;4904299;29;19934;-90
2022/07/30 10:43:36;;;;;;;;;;;25.30;75.80;;;;;;4897179;29;19934;-90
2022/07/30 10:46:18;;;;;;;;;;;25.50;75.80;;;;;;4946244;29;19958;-91
2022/07/30 10:48:49;;;;;;;;;;;25.70;75.70;;;;;;4928523;29;19950;-91
2022/07/30 10:51:20;;;;;;;;;;;25.70;75.70;;;;;;4935669;29;20245;-90
2022/07/30 10:54:01;;;;;;;;;;;25.80;74.70;;;;;;4942783;29;19941;-89
2022/07/30 10:56:28;;;;;;;;;;;25.80;74.50;;;;;;4948589;29;19935;-89
2022/07/30 10:58:59;;;;;;;;;;;25.90;74.50;;;;;;4927100;29;19927;-90
2022/07/30 11:01:48;;;;;;;;;;;26.10;74.70;;;;;;4934377;29;19930;-89
2022/07/30 11:04:21;;;;;;;;;;;26.10;75.10;;;;;;4936296;29;19946;-92
2022/07/30 11:07:14;;;;;;;;;;;26.40;74.10;;;;;;4922975;29;20289;-90
2022/07/30 11:09:44;;;;;;;;;;;26.20;74.00;;;;;;4931240;29;19931;-90
2022/07/30 11:12:41;;;;;;;;;;;26.40;74.10;;;;;;4935095;29;19983;-90
2022/07/30 11:15:11;;;;;;;;;;;26.60;73.40;;;;;;4933071;29;19931;-92
2022/07/30 11:17:58;;;;;;;;;;;26.70;72.40;;;;;;4941433;29;19927;-89
2022/07/30 11:20:27;;;;;;;;;;;26.70;72.40;;;;;;4939809;29;19938;-89
2022/07/30 11:23:09;;;;;;;;;;;26.70;72.60;;;;;;4944173;29;19927;-90
2022/07/30 11:25:41;;;;;;;;;;;26.80;72.40;;;;;;4912251;29;19934;-90
2022/07/30 11:28:36;;;;;;;;;;;26.70;72.90;;;;;;4954346;29;19931;-89
2022/07/30 11:31:24;;;;;;;;;;;26.70;72.60;;;;;;4944114;29;19942;-90
2022/07/30 11:34:18;;;;;;;;;;;26.80;72.50;;;;;;4935404;29;19931;-91
2022/07/30 11:37:07;;;;;;;;;;;26.80;72.00;;;;;;4919049;29;19950;-90
2022/07/30 11:39:52;;;;;;;;;;;26.90;72.40;;;;;;4932448;29;19927;-92
2022/07/30 11:42:24;;;;;;;;;;;27.00;72.00;;;;;;4934873;29;20467;-91
2022/07/30 11:45:12;;;;;;;;;;;27.00;70.70;;;;;;4934053;29;19935;-91
2022/07/30 11:47:45;;;;;;;;;;;26.80;71.40;;;;;;4935805;29;19931;-90
2022/07/30 11:50:27;;;;;;;;;;;26.70;71.10;;;;;;4934619;29;19926;-91
2022/07/30 11:52:57;;;;;;;;;;;26.60;71.90;;;;;;4946059;29;19931;-90
2022/07/30 11:55:25;;;;;;;;;;;26.50;72.20;;;;;;4933429;29;20442;-89
2022/07/30 11:57:55;;;;;;;;;;;26.60;72.30;;;;;;4920153;29;19938;-89
2022/07/30 12:00:23;;;;;;;;;;;26.60;72.00;;;;;;4935937;29;19950;-91
2022/07/30 12:02:51;;;;;;;;;;;26.60;72.40;;;;;;4922557;29;19927;-91
2022/07/30 12:05:24;;;;;;;;;;;26.70;72.10;;;;;;4904419;29;19931;-91
2022/07/30 12:07:58;;;;;;;;;;;26.60;72.00;;;;;;4915656;29;20410;-92
2022/07/30 12:10:26;;;;;;;;;;;26.60;72.10;;;;;;4944221;29;19934;-89
2022/07/30 12:13:05;;;;;;;;;;;26.70;72.20;;;;;;4913080;29;20294;-90
2022/07/30 12:15:35;;;;;;;;;;;26.60;72.00;;;;;;4928003;29;19944;-90
2022/07/30 12:18:03;;;;;;;;;;;26.60;72.00;;;;;;4926645;29;19927;-89
2022/07/30 12:21:06;;;;;;;;;;;26.40;72.80;;;;;;4911198;29;19927;-89
2022/07/30 12:23:42;;;;;;;;;;;26.30;71.60;;;;;;4911136;29;19935;-88
2022/07/30 12:26:21;;;;;;;;;;;26.70;71.80;;;;;;4914083;29;19938;-90
2022/07/30 12:28:49;;;;;;;;;;;26.10;71.70;;;;;;4940703;28;20313;-89
2022/07/30 12:31:16;;;;;;;;;;;26.00;71.40;;;;;;4929792;29;19930;-90
2022/07/30 12:33:44;;;;;;;;;;;25.90;71.40;;;;;;4936300;29;20384;-89
2022/07/30 12:36:32;;;;;;;;;;;25.90;71.40;;;;;;4907956;29;19942;-90
2022/07/30 12:39:01;;;;;;;;;;;25.90;71.50;;;;;;4943405;29;19942;-90
2022/07/30 12:41:46;;;;;;;;;;;26.00;71.50;;;;;;4910168;29;19938;-90
2022/07/30 12:44:33;;;;;;;;;;;26.10;71.30;;;;;;4926070;29;19930;-90
2022/07/30 12:47:02;;;;;;;;;;;26.10;71.00;;;;;;4909538;29;19935;-91
2022/07/30 12:49:33;;;;;;;;;;;26.30;71.20;;;;;;4910897;29;19938;-90
2022/07/30 12:52:26;;;;;;;;;;;26.40;70.80;;;;;;4912218;29;19927;-90
2022/07/30 12:54:57;;;;;;;;;;;26.60;70.40;;;;;;4936486;29;19941;-91
2022/07/30 12:57:27;;;;;;;;;;;26.70;70.30;;;;;;4926521;29;19935;-89
2022/07/30 13:00:06;;;;;;;;;;;26.80;69.90;;;;;;4909499;29;19939;-90
2022/07/30 13:02:35;;;;;;;;;;;27.00;70.00;;;;;;4927159;29;19926;-91
2022/07/30 13:05:06;;;;;;;;;;;27.30;70.00;;;;;;4912842;29;20471;-90
2022/07/30 13:07:57;;;;;;;;;;;27.50;69.70;;;;;;4941864;29;19935;-91
2022/07/30 13:10:25;;;;;;;;;;;27.70;69.40;;;;;;4935461;29;19930;-91
2022/07/30 13:12:58;;;;;;;;;;;27.90;69.20;;;;;;4930342;29;19930;-93
2022/07/30 13:15:26;;;;;;;;;;;27.90;69.20;;;;;;4949692;29;20299;-92
2022/07/30 13:17:53;;;;;;;;;;;27.90;69.20;;;;;;4955026;28;19934;-94
2022/07/30 13:20:22;;;;;;;;;;;28.00;68.40;;;;;;4926706;29;19926;-93
2022/07/30 13:22:50;;;;;;;;;;;28.10;68.90;;;;;;4952470;29;19937;-92
2022/07/30 13:25:17;;;;;;;;;;;28.20;68.70;;;;;;4926692;29;20290;-89
2022/07/30 13:27:46;;;;;;;;;;;28.20;68.30;;;;;;4945703;29;20402;-92
2022/07/30 13:30:19;;;;;;;;;;;28.30;68.10;;;;;;4937730;28;19935;-92
2022/07/30 13:32:47;;;;;;;;;;;28.40;68.10;;;;;;4952877;29;19923;-92
2022/07/30 13:35:14;;;;;;;;;;;28.50;67.80;;;;;;4934533;29;19935;-92
2022/07/30 13:37:42;;;;;;;;;;;28.70;67.50;;;;;;4918482;29;19927;-93
2022/07/30 13:40:10;;;;;;;;;;;29.00;67.50;;;;;;4937496;29;19931;-94
2022/07/30 13:42:37;;;;;;;;;;;29.30;67.00;;;;;;4937018;29;19927;-92
2022/07/30 13:45:06;;;;;;;;;;;29.50;66.50;;;;;;4930150;29;19927;-92
2022/07/30 13:47:34;;;;;;;;;;;29.60;66.60;;;;;;4913532;29;20306;-92
2022/07/30 13:50:02;;;;;;;;;;;29.70;65.70;;;;;;4932983;29;19927;-92
2022/07/30 13:52:30;;;;;;;;;;;30.10;66.20;;;;;;4915071;29;19937;-92
2022/07/30 13:54:58;;;;;;;;;;;30.50;65.80;;;;;;4931034;29;19930;-92
2022/07/30 13:57:26;;;;;;;;;;;30.90;65.00;;;;;;4923046;29;19935;-93
2022/07/30 13:59:56;;;;;;;;;;;31.10;64.30;;;;;;4935936;29;19941;-92
2022/07/30 14:02:23;;;;;;;;;;;31.20;63.90;;;;;;4933541;29;20294;-93
2022/07/30 14:04:55;;;;;;;;;;;31.40;64.10;;;;;;4947231;29;20428;-94
2022/07/30 14:07:26;;;;;;;;;;;30.60;63.20;;;;;;4928544;29;19927;-93
2022/07/30 14:09:54;;;;;;;;;;;31.80;62.90;;;;;;4912258;29;19926;-92
2022/07/30 14:12:22;;;;;;;;;;;32.00;64.10;;;;;;4927844;29;19938;-93
2022/07/30 14:14:49;;;;;;;;;;;31.90;63.50;;;;;;4915421;29;19927;-93
2022/07/30 14:17:17;;;;;;;;;;;31.80;63.00;;;;;;4920379;29;19934;-92
2022/07/30 14:19:45;;;;;;;;;;;31.80;62.70;;;;;;4916706;29;20107;-94
2022/07/30 14:22:13;;;;;;;;;;;31.60;63.20;;;;;;4929358;29;19931;-92
2022/07/30 14:24:41;;;;;;;;;;;31.60;63.30;;;;;;4922803;29;19950;-94
2022/07/30 14:27:10;;;;;;;;;;;31.50;62.60;;;;;;4913994;29;19930;-93
2022/07/30 14:29:38;;;;;;;;;;;31.60;62.90;;;;;;4899113;29;19927;-93
2022/07/30 14:32:06;;;;;;;;;;;31.70;63.10;;;;;;4898755;29;19934;-92
2022/07/30 14:34:33;;;;;;;;;;;32.00;62.70;;;;;;4926356;29;19927;-92
2022/07/30 14:37:01;;;;;;;;;;;32.10;62.60;;;;;;4912581;29;19934;-92
2022/07/30 14:39:29;;;;;;;;;;;31.90;62.60;;;;;;4915225;29;19934;-92
2022/07/30 14:41:57;;;;;;;;;;;31.50;63.00;;;;;;4927464;29;19934;-92
2022/07/30 14:44:24;;;;;;;;;;;31.30;63.30;;;;;;4928301;29;19941;-93
2022/07/30 14:46:53;;;;;;;;;;;31.00;63.60;;;;;;4912431;29;19935;-90
2022/07/30 14:49:21;;;;;;;;;;;30.70;64.00;;;;;;4912706;29;19927;-92
2022/07/30 14:51:50;;;;;;;;;;;30.60;64.20;;;;;;4933769;29;19923;-90
2022/07/30 14:54:18;;;;;;;;;;;30.40;64.40;;;;;;4949366;28;19928;-90